Terminal Aerodrome Forecast
Issued by NWS Shreveport, LA

Home | Current Version | Previous Version | Text Only | Print | Product List | Glossary On
Versions: 1 2 3 4 5 6 7 8 9 10 11 12 13 14
000
FTUS44 KSHV 212051 AAA
TAFELD
TAF AMD
KELD 212051Z 2121/2218 15006KT P6SM VCTS OVC080CB
     FM220000 14007KT P6SM SCT040 BKN150 BKN250
     FM220500 14010KT P6SM BKN020
     FM220900 15010KT P6SM VCTS BKN015CB
      TEMPO 2209/2213 VRB15G25KT 2SM TSRA BKN015CB
     FM221300 26007KT 5SM -TSRA BKN010CB
     FM221600 26007KT P6SM BKN010=

USA.gov is the U.S. government's official web portal to all federal, state and local government web resources and services.